createdAt,value
2023-11-24T00:00:48.433Z,11.80
2023-11-24T00:03:17.164Z,11.80
2023-11-24T00:05:47.471Z,11.80
2023-11-24T00:08:17.272Z,11.90
2023-11-24T00:10:45.851Z,11.90
2023-11-24T00:13:14.329Z,11.80
2023-11-24T00:15:43.930Z,11.60
2023-11-24T00:18:13.075Z,11.50
2023-11-24T00:20:41.594Z,11.30
2023-11-24T00:23:10.198Z,11.10
2023-11-24T00:25:39.986Z,11.00
2023-11-24T00:28:09.059Z,10.90
2023-11-24T00:30:38.398Z,10.70
2023-11-24T00:33:06.973Z,10.60
2023-11-24T00:35:36.492Z,10.60
2023-11-24T00:38:04.984Z,10.50
2023-11-24T00:40:33.454Z,10.40
2023-11-24T00:43:03.956Z,10.40
2023-11-24T00:45:33.582Z,10.20
2023-11-24T00:48:02.410Z,10.20
2023-11-24T00:50:30.921Z,10.10
2023-11-24T00:52:59.457Z,10.10
2023-11-24T00:55:27.959Z,10.10
2023-11-24T00:57:56.425Z,10.00
2023-11-24T01:00:26.304Z,10.00
2023-11-24T01:02:55.313Z,9.90
2023-11-24T01:05:23.820Z,9.90
2023-11-24T01:07:52.302Z,9.80
2023-11-24T01:10:20.723Z,9.80
2023-11-24T01:12:49.241Z,9.80
2023-11-24T01:15:17.993Z,9.70
2023-11-24T01:17:47.968Z,9.70
2023-11-24T01:20:17.434Z,9.70
2023-11-24T01:22:46.861Z,9.70
2023-11-24T01:25:15.446Z,9.70
2023-11-24T01:27:43.972Z,9.70
2023-11-24T01:30:13.420Z,9.70
2023-11-24T01:32:41.918Z,9.70
2023-11-24T01:35:12.243Z,9.70
2023-11-24T01:37:41.158Z,9.70
2023-11-24T01:40:11.273Z,9.70
2023-11-24T01:42:40.424Z,9.70
2023-11-24T01:45:11.054Z,9.70
2023-11-24T01:47:40.177Z,9.70
2023-11-24T01:50:11.480Z,9.70
2023-11-24T01:52:42.550Z,9.70
2023-11-24T01:55:13.928Z,9.70
2023-11-24T01:57:42.802Z,9.70
2023-11-24T02:00:14.466Z,9.60
2023-11-24T02:02:43.796Z,9.70
2023-11-24T02:05:15.043Z,9.70
2023-11-24T02:07:43.661Z,9.70
2023-11-24T02:10:15.428Z,9.70
2023-11-24T02:12:44.165Z,9.70
2023-11-24T02:15:12.683Z,9.60
2023-11-24T02:17:42.002Z,9.60
2023-11-24T02:20:15.691Z,9.60
2023-11-24T02:22:45.631Z,9.50
2023-11-24T02:25:14.954Z,9.50
2023-11-24T02:27:43.453Z,9.50
2023-11-24T02:30:13.139Z,9.50
2023-11-24T02:32:41.655Z,9.40
2023-11-24T02:35:10.993Z,9.30
2023-11-24T02:37:39.965Z,9.30
2023-11-24T02:40:11.424Z,9.30
2023-11-24T02:42:40.337Z,9.30
2023-11-24T02:45:09.616Z,9.30
2023-11-24T02:47:38.187Z,9.30
2023-11-24T02:50:10.078Z,9.30
2023-11-24T02:52:38.561Z,9.30
2023-11-24T02:55:09.872Z,9.40
2023-11-24T02:57:38.373Z,9.40
2023-11-24T03:00:08.241Z,9.40
2023-11-24T03:02:36.779Z,9.30
2023-11-24T03:05:07.310Z,9.20
2023-11-24T03:07:36.827Z,9.20
2023-11-24T03:10:06.576Z,9.10
2023-11-24T03:12:36.806Z,9.00
2023-11-24T03:15:06.115Z,8.90
2023-11-24T03:17:34.688Z,8.80
2023-11-24T03:20:03.192Z,8.70
2023-11-24T03:22:31.706Z,8.70
2023-11-24T03:25:00.284Z,8.60
2023-11-24T03:27:28.850Z,8.60
2023-11-24T03:29:58.746Z,8.50
2023-11-24T03:32:28.592Z,8.50
2023-11-24T03:34:57.339Z,8.50
2023-11-24T03:37:26.915Z,8.50
2023-11-24T03:39:55.424Z,8.50
2023-11-24T03:42:23.996Z,8.50
2023-11-24T03:44:52.440Z,8.50
2023-11-24T03:47:22.929Z,8.50
2023-11-24T03:49:51.442Z,8.50
2023-11-24T03:52:19.970Z,8.50
2023-11-24T03:54:48.898Z,8.50
2023-11-24T03:57:17.376Z,8.50
2023-11-24T03:59:45.830Z,8.40
2023-11-24T04:02:14.639Z,8.40
2023-11-24T04:04:47.547Z,8.50
2023-11-24T04:07:17.498Z,8.40
2023-11-24T04:09:46.729Z,8.40
2023-11-24T04:12:15.236Z,8.40
2023-11-24T04:14:43.670Z,8.40
2023-11-24T04:17:12.112Z,8.40
2023-11-24T04:19:40.583Z,8.40
2023-11-24T04:22:10.420Z,8.30
2023-11-24T04:24:40.355Z,8.40
2023-11-24T04:27:09.988Z,8.50
2023-11-24T04:29:38.716Z,8.50
2023-11-24T04:32:08.027Z,8.50
2023-11-24T04:34:36.823Z,8.60
2023-11-24T04:37:05.969Z,8.60
2023-11-24T04:39:35.815Z,8.60
2023-11-24T04:42:04.499Z,8.60
2023-11-24T04:44:33.080Z,8.60
2023-11-24T04:47:01.970Z,8.50
2023-11-24T04:49:30.473Z,8.50
2023-11-24T04:51:59.232Z,8.50
2023-11-24T04:54:27.843Z,8.50
2023-11-24T04:56:58.016Z,8.50
2023-11-24T04:59:28.460Z,8.50
2023-11-24T05:01:57.064Z,8.50
2023-11-24T05:04:25.678Z,8.40
2023-11-24T05:06:54.191Z,8.40
2023-11-24T05:09:22.744Z,8.40
2023-11-24T05:11:51.184Z,8.40
2023-11-24T05:14:21.006Z,8.40
2023-11-24T05:16:49.586Z,8.40
2023-11-24T05:19:18.118Z,8.50
2023-11-24T05:21:46.766Z,8.50
2023-11-24T05:24:15.240Z,8.40
2023-11-24T05:26:44.376Z,8.40
2023-11-24T05:29:12.914Z,8.40
2023-11-24T05:31:42.861Z,8.40
2023-11-24T05:34:11.421Z,8.40
2023-11-24T05:36:40.015Z,8.50
2023-11-24T05:39:08.786Z,8.30
2023-11-24T05:41:37.253Z,8.30
2023-11-24T05:44:06.308Z,8.30
2023-11-24T05:46:35.089Z,8.30
2023-11-24T05:49:05.211Z,8.20
2023-11-24T05:51:34.033Z,8.20
2023-11-24T05:54:02.606Z,8.10
2023-11-24T05:56:31.095Z,8.10
2023-11-24T05:58:59.552Z,8.00
2023-11-24T06:01:27.990Z,8.00
2023-11-24T06:03:56.624Z,8.00
2023-11-24T06:06:26.652Z,7.90
2023-11-24T06:08:55.095Z,8.00
2023-11-24T06:11:23.560Z,8.00
2023-11-24T06:13:52.266Z,8.00
2023-11-24T06:16:22.209Z,8.00
2023-11-24T06:18:50.685Z,7.90
2023-11-24T06:21:19.812Z,7.90
2023-11-24T06:23:52.096Z,8.00
2023-11-24T06:26:20.629Z,8.00
2023-11-24T06:28:49.084Z,8.00
2023-11-24T06:31:17.955Z,8.00
2023-11-24T06:33:46.783Z,8.00
2023-11-24T06:36:15.305Z,8.00
2023-11-24T06:38:43.815Z,8.00
2023-11-24T06:41:13.667Z,8.00
2023-11-24T06:43:42.176Z,8.00
2023-11-24T06:46:11.217Z,8.00
2023-11-24T06:48:40.342Z,8.00
2023-11-24T06:51:09.242Z,8.00
2023-11-24T06:53:37.892Z,8.00
2023-11-24T06:56:07.112Z,8.00
2023-11-24T06:58:36.911Z,7.90
2023-11-24T07:01:06.273Z,8.00
2023-11-24T07:03:34.989Z,7.90
2023-11-24T07:06:06.067Z,7.90
2023-11-24T07:08:34.730Z,7.90
2023-11-24T07:11:05.288Z,7.90
2023-11-24T07:13:33.910Z,7.90
2023-11-24T07:16:05.310Z,8.00
2023-11-24T07:18:34.096Z,8.00
2023-11-24T07:21:02.685Z,8.00
2023-11-24T07:23:31.130Z,8.00
2023-11-24T07:25:59.626Z,8.00
2023-11-24T07:28:28.206Z,7.90
2023-11-24T07:30:56.785Z,8.00
2023-11-24T07:33:28.518Z,8.00
2023-11-24T07:35:57.029Z,7.90
2023-11-24T07:38:26.397Z,7.80
2023-11-24T07:40:55.195Z,7.70
2023-11-24T07:43:23.805Z,7.70
2023-11-24T07:45:53.198Z,7.50
2023-11-24T07:48:21.995Z,7.40
2023-11-24T07:50:51.790Z,7.40
2023-11-24T07:53:20.280Z,7.40
2023-11-24T07:55:50.370Z,7.40
2023-11-24T07:58:20.396Z,7.40
2023-11-24T08:00:48.928Z,7.30
2023-11-24T08:03:20.049Z,7.40
2023-11-24T08:05:51.957Z,7.40
2023-11-24T08:08:23.334Z,7.40
2023-11-24T08:10:51.806Z,7.30
2023-11-24T08:13:20.834Z,7.30
2023-11-24T08:15:49.350Z,7.30
2023-11-24T08:18:17.867Z,7.30
2023-11-24T08:20:46.517Z,7.30
2023-11-24T08:23:16.729Z,7.30
2023-11-24T08:25:47.894Z,7.30
2023-11-24T08:28:16.423Z,7.40
2023-11-24T08:30:45.537Z,7.40
2023-11-24T08:33:14.334Z,7.40
2023-11-24T08:35:43.247Z,7.40
2023-11-24T08:38:13.167Z,7.40
2023-11-24T08:40:42.027Z,7.40
2023-11-24T08:43:12.456Z,7.40
2023-11-24T08:45:40.983Z,7.20
2023-11-24T08:48:10.295Z,7.00
2023-11-24T08:50:38.778Z,6.80
2023-11-24T08:53:08.157Z,6.70
2023-11-24T08:55:36.586Z,6.70
2023-11-24T08:58:06.066Z,6.60
2023-11-24T09:00:37.575Z,6.60
2023-11-24T09:03:06.432Z,6.50
2023-11-24T09:05:35.846Z,6.50
2023-11-24T09:08:04.359Z,6.50
2023-11-24T09:10:33.222Z,6.50
2023-11-24T09:13:01.715Z,6.60
2023-11-24T09:15:30.365Z,6.80
2023-11-24T09:18:00.185Z,6.80
2023-11-24T09:20:29.642Z,6.90
2023-11-24T09:22:58.084Z,7.00
2023-11-24T09:25:27.530Z,7.10
2023-11-24T09:27:56.039Z,7.20
2023-11-24T09:30:24.840Z,7.30
2023-11-24T09:32:55.516Z,7.40
2023-11-24T09:35:26.126Z,7.40
2023-11-24T09:37:55.283Z,7.50
2023-11-24T09:40:25.409Z,7.60
2023-11-24T09:42:54.455Z,7.60
2023-11-24T09:45:25.525Z,7.60
2023-11-24T09:47:55.477Z,7.70
2023-11-24T09:50:27.143Z,7.60
2023-11-24T09:52:57.957Z,7.60
2023-11-24T09:55:28.383Z,7.70
2023-11-24T09:57:58.659Z,7.70
2023-11-24T10:00:28.900Z,7.70
2023-11-24T10:03:03.420Z,7.70
2023-11-24T10:05:33.553Z,7.70
2023-11-24T10:08:02.467Z,7.70
2023-11-24T10:10:31.157Z,7.70
2023-11-24T10:13:04.157Z,7.70
2023-11-24T10:15:33.899Z,7.70
2023-11-24T10:18:03.692Z,7.70
2023-11-24T10:20:33.716Z,7.80
2023-11-24T10:23:04.889Z,7.80
2023-11-24T10:25:35.726Z,7.90
2023-11-24T10:28:08.051Z,8.20
2023-11-24T10:30:36.992Z,7.90
2023-11-24T10:33:06.453Z,7.90
2023-11-24T10:35:36.558Z,7.80
2023-11-24T10:38:06.903Z,7.90
2023-11-24T10:40:39.225Z,7.80
2023-11-24T10:43:08.910Z,7.80
2023-11-24T10:45:40.615Z,7.90
2023-11-24T10:48:13.293Z,7.80
2023-11-24T10:50:48.943Z,7.90
2023-11-24T10:53:25.184Z,7.80
2023-11-24T10:55:55.062Z,7.80
2023-11-24T10:58:24.045Z,7.80
2023-11-24T11:00:53.698Z,7.80
2023-11-24T11:03:22.196Z,7.70
2023-11-24T11:06:11.637Z,7.70
2023-11-24T11:08:44.167Z,7.70
2023-11-24T11:11:46.279Z,7.70
2023-11-24T11:14:16.253Z,7.70
2023-11-24T11:16:46.144Z,7.70
2023-11-24T11:19:33.914Z,7.60
2023-11-24T11:22:08.782Z,7.70
2023-11-24T11:24:37.868Z,7.70
2023-11-24T11:27:25.363Z,7.70
2023-11-24T11:29:54.705Z,7.70
2023-11-24T11:32:25.820Z,7.80
2023-11-24T11:34:55.377Z,7.70
2023-11-24T11:37:30.890Z,7.90
2023-11-24T11:40:13.040Z,7.80
2023-11-24T11:42:53.685Z,7.70
2023-11-24T11:45:30.707Z,7.70
2023-11-24T11:48:01.017Z,7.60
2023-11-24T11:50:30.652Z,7.50
2023-11-24T11:53:02.143Z,7.50
2023-11-24T11:55:30.948Z,7.50
2023-11-24T11:58:01.450Z,7.40
2023-11-24T12:00:31.398Z,7.50
2023-11-24T12:03:00.849Z,7.40
2023-11-24T12:05:29.454Z,7.40
2023-11-24T12:08:01.568Z,7.40
2023-11-24T12:10:31.271Z,7.40
2023-11-24T12:13:05.828Z,7.60
2023-11-24T12:15:35.389Z,7.50
2023-11-24T12:18:06.626Z,7.60
2023-11-24T12:20:37.565Z,7.60
2023-11-24T12:23:09.039Z,7.60
2023-11-24T12:25:40.713Z,7.60
2023-11-24T12:28:11.516Z,7.60
2023-11-24T12:30:43.011Z,7.60
2023-11-24T12:33:20.040Z,7.60
2023-11-24T12:35:49.524Z,7.60
2023-11-24T12:38:20.251Z,7.60
2023-11-24T12:40:49.817Z,7.60
2023-11-24T12:43:19.787Z,7.60
2023-11-24T12:45:50.216Z,7.60
2023-11-24T12:48:22.884Z,7.50
2023-11-24T12:50:53.029Z,7.40
2023-11-24T12:53:23.166Z,7.40
2023-11-24T12:55:52.635Z,7.20
2023-11-24T12:58:22.280Z,7.10
2023-11-24T13:00:54.712Z,7.00
2023-11-24T13:03:23.417Z,7.00
2023-11-24T13:05:52.140Z,6.90
2023-11-24T13:08:21.922Z,6.90
2023-11-24T13:10:54.316Z,6.80
2023-11-24T13:13:23.124Z,6.80
2023-11-24T13:15:52.282Z,6.80
2023-11-24T13:18:20.989Z,6.70
2023-11-24T13:20:49.518Z,6.70
2023-11-24T13:23:17.990Z,6.70
2023-11-24T13:25:48.236Z,6.70
2023-11-24T13:28:16.709Z,6.70
2023-11-24T13:30:45.235Z,6.70
2023-11-24T13:33:14.764Z,6.70
2023-11-24T13:35:43.284Z,6.70
2023-11-24T13:38:11.805Z,6.70
2023-11-24T13:40:42.289Z,6.80
2023-11-24T13:43:12.089Z,6.70
2023-11-24T13:45:43.017Z,6.70
2023-11-24T13:48:13.553Z,6.80
2023-11-24T13:50:42.120Z,6.70
2023-11-24T13:53:12.977Z,6.80
2023-11-24T13:55:44.741Z,6.80
2023-11-24T13:58:14.877Z,6.80
2023-11-24T14:00:43.434Z,6.80
2023-11-24T14:03:12.226Z,6.80
2023-11-24T14:05:41.806Z,6.80
2023-11-24T14:08:10.749Z,6.80
2023-11-24T14:10:39.238Z,6.80
2023-11-24T14:13:07.846Z,6.80
2023-11-24T14:15:37.705Z,6.90
2023-11-24T14:18:08.832Z,6.90
2023-11-24T14:20:40.623Z,6.90
2023-11-24T14:23:09.137Z,6.90
2023-11-24T14:25:37.874Z,6.90
2023-11-24T14:28:06.553Z,6.90
2023-11-24T14:30:39.402Z,6.90
2023-11-24T14:33:11.929Z,6.80
2023-11-24T14:35:43.558Z,6.90
2023-11-24T14:38:12.033Z,6.90
2023-11-24T14:40:42.971Z,6.90
2023-11-24T14:43:15.959Z,7.00
2023-11-24T14:45:46.525Z,6.90
2023-11-24T14:48:17.888Z,6.90
2023-11-24T14:50:46.425Z,6.90
2023-11-24T14:53:16.030Z,6.90
2023-11-24T14:55:46.154Z,6.90
2023-11-24T14:58:16.965Z,6.90
2023-11-24T15:00:47.610Z,7.10
2023-11-24T15:03:22.797Z,6.90
2023-11-24T15:05:55.623Z,6.90
2023-11-24T15:08:24.354Z,6.90
2023-11-24T15:10:52.928Z,6.80
2023-11-24T15:13:23.164Z,6.80
2023-11-24T15:15:51.831Z,6.80
2023-11-24T15:18:22.136Z,6.80
2023-11-24T15:20:54.851Z,6.80
2023-11-24T15:23:24.507Z,6.90
2023-11-24T15:25:53.942Z,6.80
2023-11-24T15:28:23.743Z,6.80
2023-11-24T15:30:54.394Z,6.80
2023-11-24T15:33:31.147Z,6.70
2023-11-24T15:36:01.385Z,6.70
2023-11-24T15:38:29.910Z,6.70
2023-11-24T15:40:58.518Z,6.60
2023-11-24T15:43:27.141Z,6.60
2023-11-24T15:45:57.842Z,6.60
2023-11-24T15:48:29.669Z,6.60
2023-11-24T15:50:58.390Z,6.50
2023-11-24T15:53:27.478Z,6.50
2023-11-24T15:55:56.855Z,6.50
2023-11-24T15:58:28.464Z,6.40
2023-11-24T16:00:58.347Z,6.40
2023-11-24T16:03:29.524Z,6.40
2023-11-24T16:06:05.601Z,6.30
2023-11-24T16:08:34.410Z,6.30
2023-11-24T16:11:10.974Z,6.20
2023-11-24T16:13:42.534Z,6.10
2023-11-24T16:16:12.018Z,6.10
2023-11-24T16:18:43.237Z,6.00
2023-11-24T16:21:12.162Z,6.00
2023-11-24T16:23:40.682Z,6.00
2023-11-24T16:26:11.049Z,5.90
2023-11-24T16:28:40.189Z,6.00
2023-11-24T16:31:08.853Z,5.90
2023-11-24T16:33:38.710Z,6.00
2023-11-24T16:36:11.004Z,5.90
2023-11-24T16:38:42.241Z,5.90
2023-11-24T16:41:10.780Z,5.90
2023-11-24T16:43:39.412Z,5.80
2023-11-24T16:46:10.467Z,5.80
2023-11-24T16:48:41.406Z,5.70
2023-11-24T16:51:11.690Z,5.70
2023-11-24T16:53:44.052Z,5.70
2023-11-24T16:56:13.988Z,5.60
2023-11-24T16:58:42.857Z,5.60
2023-11-24T17:01:11.808Z,5.60
2023-11-24T17:03:41.174Z,5.60
2023-11-24T17:06:11.897Z,5.60
2023-11-24T17:08:40.846Z,5.50
2023-11-24T17:11:09.438Z,5.50
2023-11-24T17:13:38.030Z,5.50
2023-11-24T17:16:07.903Z,5.30
2023-11-24T17:18:38.700Z,5.10
2023-11-24T17:21:07.609Z,4.90
2023-11-24T17:23:41.394Z,4.80
2023-11-24T17:26:10.970Z,4.60
2023-11-24T17:28:39.594Z,4.50
2023-11-24T17:31:09.090Z,4.50
2023-11-24T17:33:39.060Z,4.40
2023-11-24T17:36:09.260Z,4.30
2023-11-24T17:38:39.175Z,4.30
2023-11-24T17:41:08.193Z,4.20
2023-11-24T17:43:36.603Z,4.20
2023-11-24T17:46:07.653Z,4.20
2023-11-24T17:48:37.062Z,4.30
2023-11-24T17:51:06.312Z,4.30
2023-11-24T17:53:36.447Z,4.40
2023-11-24T17:56:07.446Z,4.50
2023-11-24T17:58:36.122Z,4.60
2023-11-24T18:01:05.102Z,4.60
2023-11-24T18:03:33.699Z,4.60
2023-11-24T18:06:03.608Z,4.70
2023-11-24T18:08:34.673Z,4.80
2023-11-24T18:11:03.606Z,4.90
2023-11-24T18:13:33.479Z,4.90
2023-11-24T18:16:02.061Z,5.00
2023-11-24T18:18:30.832Z,5.00
2023-11-24T18:20:59.302Z,5.00
2023-11-24T18:23:28.209Z,5.10
2023-11-24T18:25:56.708Z,5.10
2023-11-24T18:28:25.310Z,5.20
2023-11-24T18:30:56.481Z,5.20
2023-11-24T18:33:26.778Z,5.20
2023-11-24T18:35:55.589Z,5.20
2023-11-24T18:38:24.051Z,5.20
2023-11-24T18:40:53.290Z,5.10
2023-11-24T18:43:30.527Z,5.20
2023-11-24T18:46:07.236Z,5.20
2023-11-24T18:48:35.963Z,5.20
2023-11-24T18:51:04.506Z,5.20
2023-11-24T18:53:33.230Z,5.30
2023-11-24T18:56:01.712Z,5.20
2023-11-24T18:58:30.460Z,5.70
2023-11-24T19:00:59.812Z,5.20
2023-11-24T19:03:32.069Z,5.20
2023-11-24T19:06:00.588Z,5.20
2023-11-24T19:08:29.178Z,5.10
2023-11-24T19:10:57.724Z,5.10
2023-11-24T19:13:26.887Z,5.10
2023-11-24T19:15:56.540Z,5.10
2023-11-24T19:18:25.260Z,5.10
2023-11-24T19:20:56.149Z,5.10
2023-11-24T19:23:24.648Z,5.10
2023-11-24T19:25:53.358Z,5.10
2023-11-24T19:28:21.925Z,5.10
2023-11-24T19:30:53.130Z,5.10
2023-11-24T19:33:22.304Z,5.20
2023-11-24T19:35:50.717Z,5.10
2023-11-24T19:38:20.505Z,5.20
2023-11-24T19:40:49.184Z,5.10
2023-11-24T19:43:17.713Z,5.20
2023-11-24T19:45:46.266Z,5.20
2023-11-24T19:48:14.767Z,5.20
2023-11-24T19:50:43.239Z,5.20
2023-11-24T19:53:11.655Z,5.20
2023-11-24T19:55:41.402Z,5.20
2023-11-24T19:58:10.442Z,5.20
2023-11-24T20:00:38.914Z,5.20
2023-11-24T20:03:07.576Z,5.30
2023-11-24T20:05:36.601Z,5.30
2023-11-24T20:08:06.050Z,5.30
2023-11-24T20:10:34.564Z,5.40
2023-11-24T20:13:05.473Z,5.30
2023-11-24T20:15:33.974Z,5.40
2023-11-24T20:18:02.589Z,5.40
2023-11-24T20:20:31.249Z,5.50
2023-11-24T20:22:59.688Z,5.40
2023-11-24T20:25:28.242Z,5.40
2023-11-24T20:27:57.086Z,5.40
2023-11-24T20:30:27.384Z,5.40
2023-11-24T20:32:57.582Z,5.40
2023-11-24T20:35:26.537Z,5.40
2023-11-24T20:37:55.017Z,5.40
2023-11-24T20:40:24.471Z,5.40
2023-11-24T20:42:54.050Z,5.40
2023-11-24T20:45:22.523Z,5.40
2023-11-24T20:47:52.771Z,5.40
2023-11-24T20:50:23.120Z,5.40
2023-11-24T20:52:52.248Z,5.30
2023-11-24T20:55:21.084Z,5.20
2023-11-24T20:57:49.692Z,5.10
2023-11-24T21:00:19.953Z,5.00
2023-11-24T21:02:49.409Z,5.00
2023-11-24T21:05:19.569Z,4.90
2023-11-24T21:07:48.035Z,4.90
2023-11-24T21:10:16.552Z,4.90
2023-11-24T21:12:45.166Z,4.80
2023-11-24T21:15:15.303Z,4.80
2023-11-24T21:17:44.300Z,4.80
2023-11-24T21:20:14.768Z,4.80
2023-11-24T21:22:45.404Z,4.80
2023-11-24T21:25:14.180Z,4.80
2023-11-24T21:27:43.101Z,4.80
2023-11-24T21:30:12.607Z,4.70
2023-11-24T21:32:41.252Z,4.70
2023-11-24T21:35:10.416Z,4.70
2023-11-24T21:37:38.984Z,4.70
2023-11-24T21:40:13.931Z,4.70
2023-11-24T21:42:43.097Z,4.70
2023-11-24T21:45:11.976Z,4.80
2023-11-24T21:47:41.434Z,4.70
2023-11-24T21:50:14.342Z,4.70
2023-11-24T21:52:43.104Z,4.70
2023-11-24T21:55:14.568Z,4.70
2023-11-24T21:57:43.306Z,4.70
2023-11-24T22:00:18.042Z,4.70
2023-11-24T22:02:47.098Z,4.70
2023-11-24T22:05:15.679Z,4.70
2023-11-24T22:07:44.302Z,4.70
2023-11-24T22:10:15.682Z,4.70
2023-11-24T22:12:46.164Z,4.60
2023-11-24T22:15:14.974Z,4.60
2023-11-24T22:17:44.506Z,4.60
2023-11-24T22:20:15.556Z,4.60
2023-11-24T22:22:45.329Z,4.60
2023-11-24T22:25:15.197Z,4.50
2023-11-24T22:27:43.770Z,4.50
2023-11-24T22:30:13.773Z,4.50
2023-11-24T22:32:42.354Z,4.50
2023-11-24T22:35:10.986Z,4.50
2023-11-24T22:37:39.649Z,4.50
2023-11-24T22:40:10.471Z,4.50
2023-11-24T22:42:40.372Z,4.50
2023-11-24T22:45:11.028Z,4.50
2023-11-24T22:47:42.977Z,4.60
2023-11-24T22:50:12.052Z,4.60
2023-11-24T22:52:40.559Z,4.60
2023-11-24T22:55:10.408Z,4.60
2023-11-24T22:57:40.910Z,4.60
2023-11-24T23:00:30.929Z,4.60
2023-11-24T23:02:59.707Z,4.60
2023-11-24T23:05:28.322Z,4.70
2023-11-24T23:07:56.951Z,4.60
2023-11-24T23:10:25.483Z,4.60
2023-11-24T23:12:55.472Z,4.60
2023-11-24T23:15:25.580Z,4.60
2023-11-24T23:17:54.523Z,4.50
2023-11-24T23:20:23.306Z,4.50
2023-11-24T23:22:51.804Z,4.50
2023-11-24T23:25:20.534Z,4.40
2023-11-24T23:27:49.053Z,4.40
2023-11-24T23:30:19.037Z,4.40
2023-11-24T23:32:47.574Z,4.40
2023-11-24T23:35:16.157Z,4.30
2023-11-24T23:37:46.105Z,4.30
2023-11-24T23:40:15.819Z,4.20
2023-11-24T23:42:45.791Z,4.20
2023-11-24T23:45:14.904Z,4.20
2023-11-24T23:47:44.921Z,4.10
2023-11-24T23:50:13.943Z,4.10
2023-11-24T23:52:43.213Z,4.10
2023-11-24T23:55:15.241Z,4.30
2023-11-24T23:57:45.098Z,4.10
